sensor_id;sensor_type;location;lat;lon;timestamp;P1;durP1;ratioP1;P2;durP2;ratioP2
56911;SDS011;42800;53.928;27.662;2023-11-21T00:01:31;7.45;;;4.07;;
56911;SDS011;42800;53.928;27.662;2023-11-21T00:03:58;9.95;;;3.42;;
56911;SDS011;42800;53.928;27.662;2023-11-21T00:06:25;6.72;;;4.53;;
56911;SDS011;42800;53.928;27.662;2023-11-21T00:08:51;11.73;;;4.47;;
56911;SDS011;42800;53.928;27.662;2023-11-21T00:11:17;12.32;;;4.93;;
56911;SDS011;42800;53.928;27.662;2023-11-21T00:13:43;6.13;;;3.65;;
56911;SDS011;42800;53.928;27.662;2023-11-21T00:16:10;10.18;;;4.93;;
56911;SDS011;42800;53.928;27.662;2023-11-21T00:18:36;8.18;;;3.33;;
56911;SDS011;42800;53.928;27.662;2023-11-21T00:21:03;8.95;;;4.07;;
56911;SDS011;42800;53.928;27.662;2023-11-21T00:23:30;11.02;;;3.78;;
56911;SDS011;42800;53.928;27.662;2023-11-21T00:25:56;9.65;;;4.07;;
56911;SDS011;42800;53.928;27.662;2023-11-21T00:28:23;10.65;;;4.10;;
56911;SDS011;42800;53.928;27.662;2023-11-21T00:30:50;6.40;;;4.35;;
56911;SDS011;42800;53.928;27.662;2023-11-21T00:33:16;7.80;;;4.45;;
56911;SDS011;42800;53.928;27.662;2023-11-21T00:35:42;11.13;;;4.50;;
56911;SDS011;42800;53.928;27.662;2023-11-21T00:38:08;10.23;;;3.92;;
56911;SDS011;42800;53.928;27.662;2023-11-21T00:40:35;8.18;;;3.70;;
56911;SDS011;42800;53.928;27.662;2023-11-21T00:43:03;9.10;;;4.03;;
56911;SDS011;42800;53.928;27.662;2023-11-21T00:45:29;10.18;;;3.88;;
56911;SDS011;42800;53.928;27.662;2023-11-21T00:47:55;8.45;;;4.30;;
56911;SDS011;42800;53.928;27.662;2023-11-21T00:50:23;7.80;;;3.67;;
56911;SDS011;42800;53.928;27.662;2023-11-21T00:52:49;6.28;;;3.65;;
56911;SDS011;42800;53.928;27.662;2023-11-21T00:55:16;7.85;;;4.32;;
56911;SDS011;42800;53.928;27.662;2023-11-21T00:57:43;7.78;;;4.13;;
56911;SDS011;42800;53.928;27.662;2023-11-21T01:00:10;10.48;;;4.20;;
56911;SDS011;42800;53.928;27.662;2023-11-21T01:02:39;10.38;;;4.38;;
56911;SDS011;42800;53.928;27.662;2023-11-21T01:05:06;5.68;;;3.38;;
56911;SDS011;42800;53.928;27.662;2023-11-21T01:07:33;5.90;;;3.80;;
56911;SDS011;42800;53.928;27.662;2023-11-21T01:09:59;8.23;;;3.50;;
56911;SDS011;42800;53.928;27.662;2023-11-21T01:12:25;10.43;;;4.55;;
56911;SDS011;42800;53.928;27.662;2023-11-21T01:14:52;11.23;;;3.92;;
56911;SDS011;42800;53.928;27.662;2023-11-21T01:17:18;11.00;;;4.43;;
56911;SDS011;42800;53.928;27.662;2023-11-21T01:19:47;7.10;;;4.38;;
56911;SDS011;42800;53.928;27.662;2023-11-21T01:22:13;6.90;;;3.83;;
56911;SDS011;42800;53.928;27.662;2023-11-21T01:24:40;9.68;;;3.55;;
56911;SDS011;42800;53.928;27.662;2023-11-21T01:27:07;9.07;;;4.65;;
56911;SDS011;42800;53.928;27.662;2023-11-21T01:29:34;9.10;;;3.85;;
56911;SDS011;42800;53.928;27.662;2023-11-21T01:32:01;8.25;;;3.67;;
56911;SDS011;42800;53.928;27.662;2023-11-21T01:34:28;10.07;;;3.80;;
56911;SDS011;42800;53.928;27.662;2023-11-21T01:36:55;10.50;;;4.25;;
56911;SDS011;42800;53.928;27.662;2023-11-21T01:39:22;18.02;;;4.18;;
56911;SDS011;42800;53.928;27.662;2023-11-21T01:41:49;14.07;;;3.95;;
56911;SDS011;42800;53.928;27.662;2023-11-21T01:44:15;5.13;;;3.65;;
56911;SDS011;42800;53.928;27.662;2023-11-21T01:46:42;13.57;;;4.32;;
56911;SDS011;42800;53.928;27.662;2023-11-21T01:49:09;9.82;;;3.95;;
56911;SDS011;42800;53.928;27.662;2023-11-21T01:51:38;7.70;;;3.75;;
56911;SDS011;42800;53.928;27.662;2023-11-21T01:54:06;9.27;;;3.30;;
56911;SDS011;42800;53.928;27.662;2023-11-21T01:56:32;6.63;;;3.53;;
56911;SDS011;42800;53.928;27.662;2023-11-21T01:58:59;7.75;;;3.63;;
56911;SDS011;42800;53.928;27.662;2023-11-21T02:01:25;7.43;;;3.78;;
56911;SDS011;42800;53.928;27.662;2023-11-21T02:03:51;13.52;;;3.20;;
56911;SDS011;42800;53.928;27.662;2023-11-21T02:06:18;8.73;;;3.90;;
56911;SDS011;42800;53.928;27.662;2023-11-21T02:08:45;9.48;;;3.83;;
56911;SDS011;42800;53.928;27.662;2023-11-21T02:11:11;13.63;;;4.78;;
56911;SDS011;42800;53.928;27.662;2023-11-21T02:13:38;6.57;;;3.50;;
56911;SDS011;42800;53.928;27.662;2023-11-21T02:16:07;7.40;;;3.45;;
56911;SDS011;42800;53.928;27.662;2023-11-21T02:18:34;9.23;;;4.22;;
56911;SDS011;42800;53.928;27.662;2023-11-21T02:21:00;8.52;;;3.83;;
56911;SDS011;42800;53.928;27.662;2023-11-21T02:23:28;8.70;;;3.28;;
56911;SDS011;42800;53.928;27.662;2023-11-21T02:25:54;7.38;;;3.97;;
56911;SDS011;42800;53.928;27.662;2023-11-21T02:28:21;10.88;;;4.00;;
56911;SDS011;42800;53.928;27.662;2023-11-21T02:30:50;7.47;;;3.92;;
56911;SDS011;42800;53.928;27.662;2023-11-21T02:33:20;9.93;;;4.50;;
56911;SDS011;42800;53.928;27.662;2023-11-21T02:35:47;6.15;;;3.65;;
56911;SDS011;42800;53.928;27.662;2023-11-21T02:38:13;8.25;;;3.63;;
56911;SDS011;42800;53.928;27.662;2023-11-21T02:40:41;7.43;;;3.45;;
56911;SDS011;42800;53.928;27.662;2023-11-21T02:43:08;10.73;;;3.60;;
56911;SDS011;42800;53.928;27.662;2023-11-21T02:45:34;8.70;;;4.22;;
56911;SDS011;42800;53.928;27.662;2023-11-21T02:48:01;6.85;;;3.92;;
56911;SDS011;42800;53.928;27.662;2023-11-21T02:50:28;7.93;;;4.22;;
56911;SDS011;42800;53.928;27.662;2023-11-21T02:52:55;6.15;;;3.20;;
56911;SDS011;42800;53.928;27.662;2023-11-21T02:55:22;7.10;;;3.78;;
56911;SDS011;42800;53.928;27.662;2023-11-21T02:57:50;9.63;;;3.75;;
56911;SDS011;42800;53.928;27.662;2023-11-21T03:00:17;6.63;;;3.17;;
56911;SDS011;42800;53.928;27.662;2023-11-21T03:02:44;10.43;;;3.72;;
56911;SDS011;42800;53.928;27.662;2023-11-21T03:05:13;6.07;;;3.60;;
56911;SDS011;42800;53.928;27.662;2023-11-21T03:07:39;9.18;;;4.00;;
56911;SDS011;42800;53.928;27.662;2023-11-21T03:10:06;12.27;;;4.45;;
56911;SDS011;42800;53.928;27.662;2023-11-21T03:12:34;9.25;;;3.95;;
56911;SDS011;42800;53.928;27.662;2023-11-21T03:15:01;6.72;;;3.28;;
56911;SDS011;42800;53.928;27.662;2023-11-21T03:17:27;6.60;;;3.38;;
56911;SDS011;42800;53.928;27.662;2023-11-21T03:19:55;7.18;;;3.50;;
56911;SDS011;42800;53.928;27.662;2023-11-21T03:22:22;10.98;;;4.90;;
56911;SDS011;42800;53.928;27.662;2023-11-21T03:24:49;8.00;;;3.83;;
56911;SDS011;42800;53.928;27.662;2023-11-21T03:27:15;8.60;;;3.95;;
56911;SDS011;42800;53.928;27.662;2023-11-21T03:29:41;6.82;;;3.55;;
56911;SDS011;42800;53.928;27.662;2023-11-21T03:32:08;7.50;;;4.03;;
56911;SDS011;42800;53.928;27.662;2023-11-21T03:34:34;9.13;;;4.05;;
56911;SDS011;42800;53.928;27.662;2023-11-21T03:37:00;7.88;;;4.13;;
56911;SDS011;42800;53.928;27.662;2023-11-21T03:39:27;6.78;;;3.35;;
56911;SDS011;42800;53.928;27.662;2023-11-21T03:41:54;5.32;;;3.33;;
56911;SDS011;42800;53.928;27.662;2023-11-21T03:44:20;6.18;;;4.32;;
56911;SDS011;42800;53.928;27.662;2023-11-21T03:46:47;11.55;;;4.55;;
56911;SDS011;42800;53.928;27.662;2023-11-21T03:49:14;18.15;;;4.80;;
56911;SDS011;42800;53.928;27.662;2023-11-21T03:51:40;9.38;;;4.47;;
56911;SDS011;42800;53.928;27.662;2023-11-21T03:54:06;7.80;;;4.88;;
56911;SDS011;42800;53.928;27.662;2023-11-21T03:56:33;6.20;;;4.00;;
56911;SDS011;42800;53.928;27.662;2023-11-21T03:58:59;8.45;;;3.67;;
56911;SDS011;42800;53.928;27.662;2023-11-21T04:01:25;9.48;;;3.90;;
56911;SDS011;42800;53.928;27.662;2023-11-21T04:03:51;10.75;;;4.18;;
56911;SDS011;42800;53.928;27.662;2023-11-21T04:06:18;5.13;;;3.25;;
56911;SDS011;42800;53.928;27.662;2023-11-21T04:08:44;9.77;;;4.15;;
56911;SDS011;42800;53.928;27.662;2023-11-21T04:11:11;6.80;;;4.10;;
56911;SDS011;42800;53.928;27.662;2023-11-21T04:13:37;11.48;;;4.80;;
56911;SDS011;42800;53.928;27.662;2023-11-21T04:16:04;9.30;;;5.47;;
56911;SDS011;42800;53.928;27.662;2023-11-21T04:18:31;10.93;;;4.45;;
56911;SDS011;42800;53.928;27.662;2023-11-21T04:20:57;7.05;;;4.18;;
56911;SDS011;42800;53.928;27.662;2023-11-21T04:23:24;10.63;;;4.30;;
56911;SDS011;42800;53.928;27.662;2023-11-21T04:25:50;7.85;;;3.88;;
56911;SDS011;42800;53.928;27.662;2023-11-21T04:28:17;15.48;;;3.97;;
56911;SDS011;42800;53.928;27.662;2023-11-21T04:30:44;7.72;;;4.00;;
56911;SDS011;42800;53.928;27.662;2023-11-21T04:33:11;7.93;;;3.97;;
56911;SDS011;42800;53.928;27.662;2023-11-21T04:35:37;8.63;;;5.15;;
56911;SDS011;42800;53.928;27.662;2023-11-21T04:38:03;7.63;;;3.63;;
56911;SDS011;42800;53.928;27.662;2023-11-21T04:40:30;10.27;;;3.70;;
56911;SDS011;42800;53.928;27.662;2023-11-21T04:42:56;9.77;;;3.75;;
56911;SDS011;42800;53.928;27.662;2023-11-21T04:45:23;12.73;;;4.22;;
56911;SDS011;42800;53.928;27.662;2023-11-21T04:47:49;7.38;;;4.07;;
56911;SDS011;42800;53.928;27.662;2023-11-21T04:50:15;11.10;;;3.83;;
56911;SDS011;42800;53.928;27.662;2023-11-21T04:52:41;7.95;;;4.10;;
56911;SDS011;42800;53.928;27.662;2023-11-21T04:55:08;10.25;;;4.32;;
56911;SDS011;42800;53.928;27.662;2023-11-21T04:57:36;9.70;;;5.22;;
56911;SDS011;42800;53.928;27.662;2023-11-21T05:00:02;11.60;;;4.88;;
56911;SDS011;42800;53.928;27.662;2023-11-21T05:02:31;9.73;;;4.03;;
56911;SDS011;42800;53.928;27.662;2023-11-21T05:04:59;8.68;;;4.78;;
56911;SDS011;42800;53.928;27.662;2023-11-21T05:07:25;6.88;;;3.97;;
56911;SDS011;42800;53.928;27.662;2023-11-21T05:09:53;7.95;;;4.00;;
56911;SDS011;42800;53.928;27.662;2023-11-21T05:12:21;11.77;;;5.22;;
56911;SDS011;42800;53.928;27.662;2023-11-21T05:14:49;19.45;;;7.22;;
56911;SDS011;42800;53.928;27.662;2023-11-21T05:17:15;9.98;;;5.25;;
56911;SDS011;42800;53.928;27.662;2023-11-21T05:19:41;13.32;;;5.53;;
56911;SDS011;42800;53.928;27.662;2023-11-21T05:22:08;8.60;;;4.90;;
56911;SDS011;42800;53.928;27.662;2023-11-21T05:24:36;12.30;;;6.63;;
56911;SDS011;42800;53.928;27.662;2023-11-21T05:27:04;8.68;;;4.75;;
56911;SDS011;42800;53.928;27.662;2023-11-21T05:29:30;9.82;;;4.82;;
56911;SDS011;42800;53.928;27.662;2023-11-21T05:31:57;12.93;;;6.07;;
56911;SDS011;42800;53.928;27.662;2023-11-21T05:34:23;10.30;;;5.43;;
56911;SDS011;42800;53.928;27.662;2023-11-21T05:36:50;9.85;;;5.13;;
56911;SDS011;42800;53.928;27.662;2023-11-21T05:39:16;9.27;;;5.30;;
56911;SDS011;42800;53.928;27.662;2023-11-21T05:41:43;11.32;;;5.68;;
56911;SDS011;42800;53.928;27.662;2023-11-21T05:44:10;14.25;;;6.25;;
56911;SDS011;42800;53.928;27.662;2023-11-21T05:46:37;9.73;;;4.68;;
56911;SDS011;42800;53.928;27.662;2023-11-21T05:49:04;13.68;;;6.13;;
56911;SDS011;42800;53.928;27.662;2023-11-21T05:51:30;19.08;;;5.95;;
56911;SDS011;42800;53.928;27.662;2023-11-21T05:53:56;12.95;;;5.57;;
56911;SDS011;42800;53.928;27.662;2023-11-21T05:56:23;13.18;;;6.22;;
56911;SDS011;42800;53.928;27.662;2023-11-21T05:58:49;21.23;;;6.88;;
56911;SDS011;42800;53.928;27.662;2023-11-21T06:01:16;14.77;;;7.30;;
56911;SDS011;42800;53.928;27.662;2023-11-21T06:03:42;17.15;;;7.72;;
56911;SDS011;42800;53.928;27.662;2023-11-21T06:06:09;17.70;;;7.05;;
56911;SDS011;42800;53.928;27.662;2023-11-21T06:08:35;15.00;;;6.93;;
56911;SDS011;42800;53.928;27.662;2023-11-21T06:11:01;12.23;;;6.30;;
56911;SDS011;42800;53.928;27.662;2023-11-21T06:13:28;17.30;;;7.40;;
56911;SDS011;42800;53.928;27.662;2023-11-21T06:15:54;32.17;;;7.63;;
56911;SDS011;42800;53.928;27.662;2023-11-21T06:18:21;14.45;;;7.05;;
56911;SDS011;42800;53.928;27.662;2023-11-21T06:20:47;17.23;;;6.88;;
56911;SDS011;42800;53.928;27.662;2023-11-21T06:23:14;18.17;;;8.32;;
56911;SDS011;42800;53.928;27.662;2023-11-21T06:25:41;10.13;;;4.63;;
56911;SDS011;42800;53.928;27.662;2023-11-21T06:28:07;21.33;;;7.93;;
56911;SDS011;42800;53.928;27.662;2023-11-21T06:30:34;14.23;;;6.38;;
56911;SDS011;42800;53.928;27.662;2023-11-21T06:33:00;13.45;;;6.40;;
56911;SDS011;42800;53.928;27.662;2023-11-21T06:35:27;19.58;;;7.28;;
56911;SDS011;42800;53.928;27.662;2023-11-21T06:37:55;13.40;;;6.45;;
56911;SDS011;42800;53.928;27.662;2023-11-21T06:40:23;21.85;;;6.50;;
56911;SDS011;42800;53.928;27.662;2023-11-21T06:42:50;29.10;;;7.47;;
56911;SDS011;42800;53.928;27.662;2023-11-21T06:45:16;14.35;;;7.03;;
56911;SDS011;42800;53.928;27.662;2023-11-21T06:47:43;19.67;;;7.68;;
56911;SDS011;42800;53.928;27.662;2023-11-21T06:50:09;17.38;;;7.63;;
56911;SDS011;42800;53.928;27.662;2023-11-21T06:52:36;16.60;;;7.00;;
56911;SDS011;42800;53.928;27.662;2023-11-21T06:55:02;12.38;;;6.07;;
56911;SDS011;42800;53.928;27.662;2023-11-21T06:57:30;15.13;;;6.97;;
56911;SDS011;42800;53.928;27.662;2023-11-21T06:59:57;20.50;;;7.30;;
56911;SDS011;42800;53.928;27.662;2023-11-21T07:02:23;20.35;;;7.80;;
56911;SDS011;42800;53.928;27.662;2023-11-21T07:04:50;18.77;;;7.38;;
56911;SDS011;42800;53.928;27.662;2023-11-21T07:07:16;11.63;;;6.35;;
56911;SDS011;42800;53.928;27.662;2023-11-21T07:09:42;16.23;;;6.95;;
56911;SDS011;42800;53.928;27.662;2023-11-21T07:12:08;20.20;;;6.45;;
56911;SDS011;42800;53.928;27.662;2023-11-21T07:14:36;13.57;;;6.35;;
56911;SDS011;42800;53.928;27.662;2023-11-21T07:17:05;16.35;;;7.57;;
56911;SDS011;42800;53.928;27.662;2023-11-21T07:19:31;18.50;;;6.75;;
56911;SDS011;42800;53.928;27.662;2023-11-21T07:21:58;17.10;;;7.45;;
56911;SDS011;42800;53.928;27.662;2023-11-21T07:24:24;17.25;;;6.50;;
56911;SDS011;42800;53.928;27.662;2023-11-21T07:26:51;14.15;;;6.68;;
56911;SDS011;42800;53.928;27.662;2023-11-21T07:29:22;13.07;;;6.57;;
56911;SDS011;42800;53.928;27.662;2023-11-21T07:31:51;14.35;;;4.70;;
56911;SDS011;42800;53.928;27.662;2023-11-21T07:34:17;15.30;;;7.75;;
56911;SDS011;42800;53.928;27.662;2023-11-21T07:36:44;15.75;;;7.13;;
56911;SDS011;42800;53.928;27.662;2023-11-21T07:39:10;22.00;;;6.70;;
56911;SDS011;42800;53.928;27.662;2023-11-21T07:41:47;19.60;;;9.48;;
56911;SDS011;42800;53.928;27.662;2023-11-21T07:44:15;14.70;;;7.97;;
56911;SDS011;42800;53.928;27.662;2023-11-21T07:46:42;21.25;;;8.85;;
56911;SDS011;42800;53.928;27.662;2023-11-21T07:49:09;16.45;;;8.43;;
56911;SDS011;42800;53.928;27.662;2023-11-21T07:51:35;18.65;;;7.15;;
56911;SDS011;42800;53.928;27.662;2023-11-21T07:54:02;17.15;;;7.82;;
56911;SDS011;42800;53.928;27.662;2023-11-21T07:56:28;13.77;;;7.32;;
56911;SDS011;42800;53.928;27.662;2023-11-21T07:58:55;17.25;;;7.53;;
56911;SDS011;42800;53.928;27.662;2023-11-21T08:01:21;17.30;;;7.15;;
56911;SDS011;42800;53.928;27.662;2023-11-21T08:03:47;21.92;;;6.60;;
56911;SDS011;42800;53.928;27.662;2023-11-21T08:06:16;13.05;;;6.80;;
56911;SDS011;42800;53.928;27.662;2023-11-21T08:08:43;14.38;;;6.47;;
56911;SDS011;42800;53.928;27.662;2023-11-21T08:11:09;14.27;;;6.65;;
56911;SDS011;42800;53.928;27.662;2023-11-21T08:13:36;15.80;;;7.00;;
56911;SDS011;42800;53.928;27.662;2023-11-21T08:16:03;14.65;;;6.80;;
56911;SDS011;42800;53.928;27.662;2023-11-21T08:18:32;10.50;;;6.25;;
56911;SDS011;42800;53.928;27.662;2023-11-21T08:20:59;20.45;;;8.10;;
56911;SDS011;42800;53.928;27.662;2023-11-21T08:23:25;20.80;;;7.75;;
56911;SDS011;42800;53.928;27.662;2023-11-21T08:25:52;14.18;;;6.43;;
56911;SDS011;42800;53.928;27.662;2023-11-21T08:28:19;19.17;;;6.70;;
56911;SDS011;42800;53.928;27.662;2023-11-21T08:30:48;32.08;;;7.38;;
56911;SDS011;42800;53.928;27.662;2023-11-21T08:33:15;26.98;;;8.05;;
56911;SDS011;42800;53.928;27.662;2023-11-21T08:35:41;20.27;;;6.85;;
56911;SDS011;42800;53.928;27.662;2023-11-21T08:38:08;15.20;;;7.28;;
56911;SDS011;42800;53.928;27.662;2023-11-21T08:40:35;13.68;;;6.15;;
56911;SDS011;42800;53.928;27.662;2023-11-21T08:43:01;12.90;;;7.20;;
56911;SDS011;42800;53.928;27.662;2023-11-21T08:45:29;12.35;;;5.97;;
56911;SDS011;42800;53.928;27.662;2023-11-21T08:47:55;12.93;;;5.93;;
56911;SDS011;42800;53.928;27.662;2023-11-21T08:50:22;14.73;;;7.32;;
56911;SDS011;42800;53.928;27.662;2023-11-21T08:52:49;11.07;;;5.30;;
56911;SDS011;42800;53.928;27.662;2023-11-21T08:55:16;11.82;;;6.93;;
56911;SDS011;42800;53.928;27.662;2023-11-21T08:57:45;15.05;;;4.85;;
56911;SDS011;42800;53.928;27.662;2023-11-21T09:00:12;14.20;;;6.90;;
56911;SDS011;42800;53.928;27.662;2023-11-21T09:02:41;12.32;;;5.95;;
56911;SDS011;42800;53.928;27.662;2023-11-21T09:05:07;17.90;;;6.47;;
56911;SDS011;42800;53.928;27.662;2023-11-21T09:07:35;15.95;;;6.30;;
56911;SDS011;42800;53.928;27.662;2023-11-21T09:10:01;16.10;;;5.95;;
56911;SDS011;42800;53.928;27.662;2023-11-21T09:12:28;16.58;;;7.10;;
56911;SDS011;42800;53.928;27.662;2023-11-21T09:14:54;10.55;;;6.05;;
56911;SDS011;42800;53.928;27.662;2023-11-21T09:17:20;13.07;;;6.47;;
56911;SDS011;42800;53.928;27.662;2023-11-21T09:19:46;9.82;;;5.70;;
56911;SDS011;42800;53.928;27.662;2023-11-21T09:22:16;18.35;;;6.60;;
56911;SDS011;42800;53.928;27.662;2023-11-21T09:24:43;18.13;;;6.25;;
56911;SDS011;42800;53.928;27.662;2023-11-21T09:27:10;13.93;;;6.45;;
56911;SDS011;42800;53.928;27.662;2023-11-21T09:29:36;9.73;;;4.53;;
56911;SDS011;42800;53.928;27.662;2023-11-21T09:32:03;14.82;;;7.40;;
56911;SDS011;42800;53.928;27.662;2023-11-21T09:34:31;19.75;;;6.97;;
56911;SDS011;42800;53.928;27.662;2023-11-21T09:36:58;16.35;;;5.38;;
56911;SDS011;42800;53.928;27.662;2023-11-21T09:39:24;20.77;;;6.13;;
56911;SDS011;42800;53.928;27.662;2023-11-21T09:41:52;25.13;;;6.00;;
56911;SDS011;42800;53.928;27.662;2023-11-21T09:44:25;8.15;;;4.28;;
56911;SDS011;42800;53.928;27.662;2023-11-21T09:46:58;14.88;;;5.15;;
56911;SDS011;42800;53.928;27.662;2023-11-21T09:49:25;12.90;;;5.43;;
56911;SDS011;42800;53.928;27.662;2023-11-21T09:51:54;24.83;;;6.82;;
56911;SDS011;42800;53.928;27.662;2023-11-21T09:54:22;15.43;;;5.70;;
56911;SDS011;42800;53.928;27.662;2023-11-21T09:56:48;15.15;;;5.45;;
56911;SDS011;42800;53.928;27.662;2023-11-21T09:59:16;15.27;;;6.68;;
56911;SDS011;42800;53.928;27.662;2023-11-21T10:01:42;15.00;;;5.10;;
56911;SDS011;42800;53.928;27.662;2023-11-21T10:04:08;17.10;;;6.20;;
56911;SDS011;42800;53.928;27.662;2023-11-21T10:06:37;9.02;;;5.10;;
56911;SDS011;42800;53.928;27.662;2023-11-21T10:09:06;13.57;;;5.03;;
56911;SDS011;42800;53.928;27.662;2023-11-21T10:11:37;24.83;;;6.53;;
56911;SDS011;42800;53.928;27.662;2023-11-21T10:14:06;15.13;;;5.03;;
56911;SDS011;42800;53.928;27.662;2023-11-21T10:16:36;10.20;;;4.97;;
56911;SDS011;42800;53.928;27.662;2023-11-21T10:19:04;14.55;;;5.47;;
56911;SDS011;42800;53.928;27.662;2023-11-21T10:21:32;10.32;;;4.35;;
56911;SDS011;42800;53.928;27.662;2023-11-21T10:23:58;7.78;;;3.28;;
56911;SDS011;42800;53.928;27.662;2023-11-21T10:26:25;9.82;;;4.82;;
56911;SDS011;42800;53.928;27.662;2023-11-21T10:28:57;10.18;;;4.38;;
56911;SDS011;42800;53.928;27.662;2023-11-21T10:31:24;11.13;;;4.00;;
56911;SDS011;42800;53.928;27.662;2023-11-21T10:33:53;8.15;;;3.33;;
56911;SDS011;42800;53.928;27.662;2023-11-21T10:36:25;11.40;;;4.10;;
56911;SDS011;42800;53.928;27.662;2023-11-21T10:38:52;8.43;;;4.20;;
56911;SDS011;42800;53.928;27.662;2023-11-21T10:41:18;16.23;;;4.10;;
56911;SDS011;42800;53.928;27.662;2023-11-21T10:43:45;5.50;;;3.47;;
56911;SDS011;42800;53.928;27.662;2023-11-21T10:46:12;11.98;;;3.92;;
56911;SDS011;42800;53.928;27.662;2023-11-21T10:48:40;5.43;;;3.20;;
56911;SDS011;42800;53.928;27.662;2023-11-21T10:51:08;8.45;;;3.15;;
56911;SDS011;42800;53.928;27.662;2023-11-21T10:53:38;8.30;;;3.33;;
56911;SDS011;42800;53.928;27.662;2023-11-21T10:56:05;6.07;;;3.35;;
56911;SDS011;42800;53.928;27.662;2023-11-21T10:58:35;10.52;;;3.92;;
56911;SDS011;42800;53.928;27.662;2023-11-21T11:01:03;6.90;;;2.80;;
56911;SDS011;42800;53.928;27.662;2023-11-21T11:03:32;11.05;;;4.45;;
56911;SDS011;42800;53.928;27.662;2023-11-21T11:06:01;9.00;;;3.67;;
56911;SDS011;42800;53.928;27.662;2023-11-21T11:08:29;5.88;;;3.15;;
56911;SDS011;42800;53.928;27.662;2023-11-21T11:10:57;6.82;;;3.78;;
56911;SDS011;42800;53.928;27.662;2023-11-21T11:13:23;8.65;;;2.95;;
56911;SDS011;42800;53.928;27.662;2023-11-21T11:15:50;7.40;;;3.22;;
56911;SDS011;42800;53.928;27.662;2023-11-21T11:18:24;6.55;;;3.50;;
56911;SDS011;42800;53.928;27.662;2023-11-21T11:20:51;6.90;;;3.03;;
56911;SDS011;42800;53.928;27.662;2023-11-21T11:23:28;6.78;;;3.90;;
56911;SDS011;42800;53.928;27.662;2023-11-21T11:26:12;9.38;;;3.97;;
56911;SDS011;42800;53.928;27.662;2023-11-21T11:28:55;6.78;;;3.22;;
56911;SDS011;42800;53.928;27.662;2023-11-21T11:31:31;6.80;;;2.75;;
56911;SDS011;42800;53.928;27.662;2023-11-21T11:34:08;9.82;;;3.75;;
56911;SDS011;42800;53.928;27.662;2023-11-21T11:36:47;7.00;;;4.00;;
56911;SDS011;42800;53.928;27.662;2023-11-21T11:39:27;11.10;;;3.63;;
56911;SDS011;42800;53.928;27.662;2023-11-21T11:41:55;6.72;;;3.92;;
56911;SDS011;42800;53.928;27.662;2023-11-21T11:47:17;13.18;;;4.97;;
56911;SDS011;42800;53.928;27.662;2023-11-21T11:49:56;15.00;;;5.00;;
56911;SDS011;42800;53.928;27.662;2023-11-21T11:52:33;10.10;;;3.88;;
56911;SDS011;42800;53.928;27.662;2023-11-21T11:55:06;8.23;;;4.30;;
56911;SDS011;42800;53.928;27.662;2023-11-21T11:57:35;9.88;;;5.07;;
56911;SDS011;42800;53.928;27.662;2023-11-21T12:00:07;7.47;;;4.35;;
56911;SDS011;42800;53.928;27.662;2023-11-21T12:02:46;11.65;;;4.40;;
56911;SDS011;42800;53.928;27.662;2023-11-21T12:05:13;8.90;;;4.50;;
56911;SDS011;42800;53.928;27.662;2023-11-21T12:07:41;15.52;;;4.70;;
56911;SDS011;42800;53.928;27.662;2023-11-21T12:10:11;9.20;;;4.35;;
56911;SDS011;42800;53.928;27.662;2023-11-21T12:12:43;9.50;;;4.40;;
56911;SDS011;42800;53.928;27.662;2023-11-21T12:15:11;9.13;;;4.72;;
56911;SDS011;42800;53.928;27.662;2023-11-21T12:17:38;10.55;;;5.15;;
56911;SDS011;42800;53.928;27.662;2023-11-21T12:20:05;10.18;;;5.13;;
56911;SDS011;42800;53.928;27.662;2023-11-21T12:22:39;7.10;;;3.85;;
56911;SDS011;42800;53.928;27.662;2023-11-21T12:25:08;9.43;;;3.88;;
56911;SDS011;42800;53.928;27.662;2023-11-21T12:27:35;8.25;;;4.22;;
56911;SDS011;42800;53.928;27.662;2023-11-21T12:30:01;9.38;;;4.72;;
56911;SDS011;42800;53.928;27.662;2023-11-21T12:32:27;8.77;;;4.88;;
56911;SDS011;42800;53.928;27.662;2023-11-21T12:34:54;10.40;;;4.20;;
56911;SDS011;42800;53.928;27.662;2023-11-21T12:37:20;8.40;;;3.00;;
56911;SDS011;42800;53.928;27.662;2023-11-21T12:39:47;13.75;;;3.08;;
56911;SDS011;42800;53.928;27.662;2023-11-21T12:42:14;6.38;;;2.40;;
56911;SDS011;42800;53.928;27.662;2023-11-21T12:44:42;3.47;;;2.40;;
56911;SDS011;42800;53.928;27.662;2023-11-21T12:47:16;8.07;;;2.55;;
56911;SDS011;42800;53.928;27.662;2023-11-21T12:49:43;7.60;;;2.80;;
56911;SDS011;42800;53.928;27.662;2023-11-21T12:52:09;11.13;;;3.25;;
56911;SDS011;42800;53.928;27.662;2023-11-21T12:54:36;6.82;;;2.80;;
56911;SDS011;42800;53.928;27.662;2023-11-21T12:57:03;6.47;;;3.28;;
56911;SDS011;42800;53.928;27.662;2023-11-21T12:59:33;5.05;;;3.08;;
56911;SDS011;42800;53.928;27.662;2023-11-21T13:02:00;11.75;;;3.63;;
56911;SDS011;42800;53.928;27.662;2023-11-21T13:04:31;8.13;;;3.53;;
56911;SDS011;42800;53.928;27.662;2023-11-21T13:07:03;9.35;;;3.65;;
56911;SDS011;42800;53.928;27.662;2023-11-21T13:09:31;4.60;;;2.53;;
56911;SDS011;42800;53.928;27.662;2023-11-21T13:12:01;9.90;;;3.55;;
56911;SDS011;42800;53.928;27.662;2023-11-21T13:14:29;10.88;;;4.28;;
56911;SDS011;42800;53.928;27.662;2023-11-21T13:16:57;9.02;;;4.30;;
56911;SDS011;42800;53.928;27.662;2023-11-21T13:19:24;7.95;;;3.47;;
56911;SDS011;42800;53.928;27.662;2023-11-21T13:21:52;8.15;;;3.50;;
56911;SDS011;42800;53.928;27.662;2023-11-21T13:24:19;8.45;;;3.70;;
56911;SDS011;42800;53.928;27.662;2023-11-21T13:26:47;8.52;;;3.70;;
56911;SDS011;42800;53.928;27.662;2023-11-21T13:29:15;5.72;;;3.33;;
56911;SDS011;42800;53.928;27.662;2023-11-21T13:31:41;10.23;;;4.22;;
56911;SDS011;42800;53.928;27.662;2023-11-21T13:34:07;13.57;;;3.83;;
56911;SDS011;42800;53.928;27.662;2023-11-21T13:36:34;15.25;;;3.40;;
56911;SDS011;42800;53.928;27.662;2023-11-21T13:39:00;8.20;;;3.30;;
56911;SDS011;42800;53.928;27.662;2023-11-21T13:41:32;11.90;;;3.92;;
56911;SDS011;42800;53.928;27.662;2023-11-21T13:43:59;7.15;;;3.25;;
56911;SDS011;42800;53.928;27.662;2023-11-21T13:46:39;8.38;;;3.65;;
56911;SDS011;42800;53.928;27.662;2023-11-21T13:49:06;8.95;;;4.10;;
56911;SDS011;42800;53.928;27.662;2023-11-21T13:51:35;4.78;;;2.90;;
56911;SDS011;42800;53.928;27.662;2023-11-21T13:54:06;8.10;;;3.50;;
56911;SDS011;42800;53.928;27.662;2023-11-21T13:56:34;7.88;;;3.28;;
56911;SDS011;42800;53.928;27.662;2023-11-21T13:59:01;7.13;;;2.67;;
56911;SDS011;42800;53.928;27.662;2023-11-21T14:01:35;10.07;;;2.90;;
56911;SDS011;42800;53.928;27.662;2023-11-21T14:06:57;9.70;;;3.65;;
56911;SDS011;42800;53.928;27.662;2023-11-21T14:09:26;11.65;;;3.47;;
56911;SDS011;42800;53.928;27.662;2023-11-21T14:11:58;7.22;;;3.38;;
56911;SDS011;42800;53.928;27.662;2023-11-21T14:14:26;10.80;;;3.75;;
56911;SDS011;42800;53.928;27.662;2023-11-21T14:16:53;13.20;;;4.07;;
56911;SDS011;42800;53.928;27.662;2023-11-21T14:19:21;14.88;;;4.00;;
56911;SDS011;42800;53.928;27.662;2023-11-21T14:21:52;11.93;;;3.75;;
56911;SDS011;42800;53.928;27.662;2023-11-21T14:24:19;6.38;;;3.13;;
56911;SDS011;42800;53.928;27.662;2023-11-21T14:26:46;10.85;;;3.53;;
56911;SDS011;42800;53.928;27.662;2023-11-21T14:29:13;14.27;;;3.40;;
56911;SDS011;42800;53.928;27.662;2023-11-21T14:31:42;6.95;;;3.15;;
56911;SDS011;42800;53.928;27.662;2023-11-21T14:34:09;15.55;;;3.97;;
56911;SDS011;42800;53.928;27.662;2023-11-21T14:36:37;6.07;;;3.40;;